createdAt,value
2019-03-16T00:03:18.952Z,79.52
2019-03-16T00:06:42.047Z,79.99
2019-03-16T00:10:05.520Z,79.42
2019-03-16T00:13:28.714Z,79.50
2019-03-16T00:16:52.943Z,79.65
2019-03-16T00:20:16.043Z,80.98
2019-03-16T00:23:39.197Z,81.80
2019-03-16T00:27:02.440Z,81.64
2019-03-16T00:30:25.560Z,81.63
2019-03-16T00:33:48.747Z,81.00
2019-03-16T00:37:11.887Z,81.24
2019-03-16T00:40:35.046Z,81.42
2019-03-16T00:43:58.285Z,80.64
2019-03-16T00:47:21.483Z,80.42
2019-03-16T00:50:44.579Z,74.93
2019-03-16T00:54:07.772Z,79.77
2019-03-16T00:57:31.947Z,78.73
2019-03-16T01:00:55.346Z,77.54
2019-03-16T01:04:18.612Z,77.53
2019-03-16T01:07:41.772Z,76.27
2019-03-16T01:11:04.863Z,75.95
2019-03-16T01:14:27.981Z,74.36
2019-03-16T01:17:51.217Z,72.27
2019-03-16T01:21:14.343Z,71.82
2019-03-16T01:24:37.525Z,70.16
2019-03-16T01:28:00.999Z,69.63
2019-03-16T01:31:24.148Z,70.28
2019-03-16T01:34:47.248Z,69.56
2019-03-16T01:38:10.696Z,70.08
2019-03-16T01:41:34.158Z,68.71
2019-03-16T01:44:57.249Z,68.69
2019-03-16T01:48:20.693Z,69.56
2019-03-16T01:51:44.245Z,68.83
2019-03-16T01:55:07.671Z,69.91
2019-03-16T01:58:30.813Z,70.04
2019-03-16T02:01:53.897Z,70.15
2019-03-16T02:05:16.992Z,70.90
2019-03-16T02:08:40.594Z,71.23
2019-03-16T02:12:03.873Z,71.93
2019-03-16T02:15:26.926Z,72.33
2019-03-16T02:18:50.359Z,72.42
2019-03-16T02:22:13.438Z,73.62
2019-03-16T02:25:36.531Z,72.62
2019-03-16T02:28:59.757Z,73.24
2019-03-16T02:32:23.187Z,74.19
2019-03-16T02:35:46.539Z,75.59
2019-03-16T02:39:09.685Z,75.70
2019-03-16T02:42:32.940Z,75.52
2019-03-16T02:45:56.125Z,76.05
2019-03-16T02:49:19.381Z,77.11
2019-03-16T02:52:42.608Z,78.15
2019-03-16T02:56:05.937Z,78.62
2019-03-16T02:59:29.301Z,78.42
2019-03-16T03:02:52.433Z,79.19
2019-03-16T03:06:15.701Z,79.13
2019-03-16T03:09:38.828Z,79.84
2019-03-16T03:13:02.040Z,79.38
2019-03-16T03:16:25.125Z,80.08
2019-03-16T03:19:48.548Z,80.12
2019-03-16T03:23:11.824Z,80.80
2019-03-16T03:26:35.024Z,82.85
2019-03-16T03:29:58.393Z,82.11
2019-03-16T03:33:21.537Z,84.31
2019-03-16T03:36:44.994Z,83.57
2019-03-16T03:40:08.235Z,84.93
2019-03-16T03:43:31.541Z,85.10
2019-03-16T03:46:54.677Z,85.19
2019-03-16T03:50:17.830Z,85.56
2019-03-16T03:53:41.512Z,84.96
2019-03-16T03:57:05.089Z,84.47
2019-03-16T04:00:28.242Z,85.03
2019-03-16T04:03:51.390Z,84.79
2019-03-16T04:07:14.653Z,85.30
2019-03-16T04:10:37.813Z,86.06
2019-03-16T04:14:01.016Z,86.40
2019-03-16T04:17:24.121Z,88.70
2019-03-16T04:20:47.559Z,88.35
2019-03-16T04:24:11.089Z,87.22
2019-03-16T04:27:34.259Z,88.10
2019-03-16T04:30:57.662Z,87.25
2019-03-16T04:34:29.024Z,88.44
2019-03-16T04:37:46.235Z,87.79
2019-03-16T04:41:09.399Z,88.24
2019-03-16T04:44:32.638Z,88.17
2019-03-16T04:47:55.736Z,88.55
2019-03-16T04:51:19.146Z,88.75
2019-03-16T04:54:42.360Z,90.39
2019-03-16T04:58:05.558Z,89.32
2019-03-16T05:01:28.760Z,88.69
2019-03-16T05:04:52.143Z,88.42
2019-03-16T05:08:15.294Z,89.24
2019-03-16T05:11:38.425Z,89.08
2019-03-16T05:15:01.652Z,88.45
2019-03-16T05:18:25.183Z,88.10
2019-03-16T05:21:48.375Z,88.07
2019-03-16T05:25:11.607Z,87.54
2019-03-16T05:28:34.757Z,88.58
2019-03-16T05:31:58.195Z,87.24
2019-03-16T05:35:21.288Z,88.42
2019-03-16T05:38:44.572Z,88.35
2019-03-16T05:42:07.733Z,88.17
2019-03-16T05:45:34.003Z,87.59
2019-03-16T05:48:57.154Z,87.22
2019-03-16T05:52:20.587Z,89.37
2019-03-16T05:55:43.913Z,89.56
2019-03-16T05:59:07.079Z,88.21
2019-03-16T06:02:30.253Z,88.73
2019-03-16T06:05:55.122Z,89.01
2019-03-16T06:09:18.339Z,86.88
2019-03-16T06:12:46.311Z,87.60
2019-03-16T06:16:06.664Z,87.12
2019-03-16T06:19:30.043Z,87.26
2019-03-16T06:22:53.274Z,87.13
2019-03-16T06:26:18.143Z,87.73
2019-03-16T06:29:41.348Z,87.19
2019-03-16T06:33:06.031Z,87.63
2019-03-16T06:36:29.157Z,87.57
2019-03-16T06:39:53.138Z,87.47
2019-03-16T06:43:16.305Z,87.54
2019-03-16T06:46:39.652Z,86.72
2019-03-16T06:50:03.395Z,87.92
2019-03-16T06:53:26.608Z,87.05
2019-03-16T06:56:52.280Z,88.48
2019-03-16T07:00:16.695Z,88.05
2019-03-16T07:03:39.813Z,88.98
2019-03-16T07:07:03.565Z,89.69
2019-03-16T07:10:26.624Z,89.13
2019-03-16T07:13:52.262Z,88.98
2019-03-16T07:17:21.814Z,87.58
2019-03-16T07:20:45.342Z,87.73
2019-03-16T07:24:08.999Z,88.10
2019-03-16T07:27:32.207Z,88.71
2019-03-16T07:30:57.423Z,88.90
2019-03-16T07:34:23.609Z,89.34
2019-03-16T07:37:52.147Z,88.63
2019-03-16T07:41:17.771Z,89.11
2019-03-16T07:44:40.947Z,90.60
2019-03-16T07:48:04.095Z,89.10
2019-03-16T07:51:27.274Z,90.87
2019-03-16T07:54:50.389Z,90.17
2019-03-16T07:58:13.492Z,89.88
2019-03-16T08:01:36.706Z,89.09
2019-03-16T08:04:59.983Z,88.26
2019-03-16T08:08:23.134Z,88.40
2019-03-16T08:11:46.237Z,88.46
2019-03-16T08:15:09.482Z,87.65
2019-03-16T08:18:32.773Z,87.17
2019-03-16T08:21:56.221Z,87.13
2019-03-16T08:25:19.468Z,86.23
2019-03-16T08:28:42.604Z,86.98
2019-03-16T08:32:06.718Z,85.85
2019-03-16T08:35:29.914Z,85.82
2019-03-16T08:38:53.084Z,86.24
2019-03-16T08:42:16.635Z,85.46
2019-03-16T08:45:39.778Z,84.54
2019-03-16T08:49:03.084Z,82.85
2019-03-16T08:52:26.223Z,82.87
2019-03-16T08:55:49.412Z,83.06
2019-03-16T08:59:12.694Z,82.36
2019-03-16T09:02:35.890Z,81.42
2019-03-16T09:05:59.432Z,81.02
2019-03-16T09:09:22.606Z,80.76
2019-03-16T09:12:54.944Z,80.17
2019-03-16T09:16:10.884Z,78.81
2019-03-16T09:19:34.006Z,78.56
2019-03-16T09:22:57.046Z,77.09
2019-03-16T09:26:20.489Z,75.86
2019-03-16T09:29:43.705Z,75.92
2019-03-16T09:33:06.846Z,76.06
2019-03-16T09:36:30.099Z,75.26
2019-03-16T09:39:53.198Z,75.24
2019-03-16T09:43:16.924Z,74.64
2019-03-16T09:46:40.236Z,74.79
2019-03-16T09:50:03.630Z,74.00
2019-03-16T09:53:26.723Z,74.49
2019-03-16T09:57:00.524Z,74.44
2019-03-16T10:00:15.316Z,74.89
2019-03-16T10:03:38.457Z,73.49
2019-03-16T10:07:01.740Z,73.50
2019-03-16T10:10:24.902Z,73.62
2019-03-16T10:13:48.025Z,73.85
2019-03-16T10:17:11.265Z,72.84
2019-03-16T10:20:34.798Z,73.16
2019-03-16T10:23:58.013Z,72.86
2019-03-16T10:27:21.148Z,72.46
2019-03-16T10:30:45.212Z,71.84
2019-03-16T10:34:08.491Z,70.16
2019-03-16T10:37:31.936Z,69.66
2019-03-16T10:40:55.089Z,68.91
2019-03-16T10:44:19.299Z,68.32
2019-03-16T10:47:42.598Z,68.45
2019-03-16T10:51:05.925Z,67.85
2019-03-16T10:54:29.148Z,67.95
2019-03-16T10:57:52.340Z,66.98
2019-03-16T11:01:15.563Z,67.28
2019-03-16T11:04:38.794Z,66.91
2019-03-16T11:08:02.319Z,65.66
2019-03-16T11:11:25.545Z,66.60
2019-03-16T11:14:48.819Z,66.65
2019-03-16T11:18:11.940Z,67.28
2019-03-16T11:21:35.171Z,67.13
2019-03-16T11:24:58.369Z,66.89
2019-03-16T11:28:21.476Z,67.69
2019-03-16T11:31:44.659Z,66.21
2019-03-16T11:35:08.993Z,65.85
2019-03-16T11:38:32.151Z,66.51
2019-03-16T11:41:55.588Z,65.85
2019-03-16T11:45:18.761Z,66.26
2019-03-16T11:48:41.824Z,65.90
2019-03-16T11:52:05.367Z,65.91
2019-03-16T11:55:28.489Z,66.28
2019-03-16T11:58:51.662Z,65.56
2019-03-16T12:02:14.774Z,66.22
2019-03-16T12:05:37.903Z,66.79
2019-03-16T12:09:01.059Z,67.99
2019-03-16T12:12:24.323Z,67.62
2019-03-16T12:15:47.489Z,66.97
2019-03-16T12:19:10.628Z,67.00
2019-03-16T12:22:33.809Z,67.20
2019-03-16T12:25:56.955Z,67.24
2019-03-16T12:29:20.374Z,66.98
2019-03-16T12:32:43.596Z,66.87
2019-03-16T12:36:06.710Z,66.67
2019-03-16T12:39:29.821Z,66.94
2019-03-16T12:42:52.880Z,67.70
2019-03-16T12:46:15.994Z,67.88
2019-03-16T12:49:39.126Z,67.86
2019-03-16T12:53:02.336Z,68.24
2019-03-16T12:56:25.617Z,68.97
2019-03-16T12:59:48.904Z,67.79
2019-03-16T13:03:12.334Z,68.67
2019-03-16T13:06:35.595Z,68.31
2019-03-16T13:09:58.720Z,67.29
2019-03-16T13:13:21.919Z,66.83
2019-03-16T13:16:45.239Z,68.51
2019-03-16T13:20:09.025Z,67.09
2019-03-16T13:23:32.394Z,66.04
2019-03-16T13:26:55.525Z,66.47
2019-03-16T13:30:18.953Z,66.15
2019-03-16T13:33:42.083Z,64.87
2019-03-16T13:37:05.256Z,65.55
2019-03-16T13:40:28.426Z,64.40
2019-03-16T13:43:51.882Z,65.17
2019-03-16T13:47:15.110Z,63.94
2019-03-16T13:50:38.250Z,64.49
2019-03-16T13:54:01.871Z,64.52
2019-03-16T13:57:25.120Z,62.55
2019-03-16T14:00:48.318Z,62.56
2019-03-16T14:04:12.016Z,61.38
2019-03-16T14:07:35.325Z,61.31
2019-03-16T14:10:58.571Z,61.98
2019-03-16T14:14:21.971Z,62.10
2019-03-16T14:17:45.173Z,62.94
2019-03-16T14:21:08.781Z,62.78
2019-03-16T14:24:32.084Z,63.07
2019-03-16T14:27:55.540Z,62.53
2019-03-16T14:31:18.704Z,63.58
2019-03-16T14:34:41.814Z,63.23
2019-03-16T14:38:05.292Z,64.07
2019-03-16T14:41:28.559Z,64.07
2019-03-16T14:44:51.921Z,63.83
2019-03-16T14:48:15.039Z,63.71
2019-03-16T14:51:38.171Z,63.77
2019-03-16T14:55:01.597Z,63.36
2019-03-16T14:58:24.806Z,63.28
2019-03-16T15:01:47.929Z,63.42
2019-03-16T15:05:11.132Z,63.36
2019-03-16T15:08:34.548Z,63.87
2019-03-16T15:11:57.805Z,63.85
2019-03-16T15:15:21.067Z,63.43
2019-03-16T15:18:45.186Z,62.82
2019-03-16T15:22:08.358Z,63.55
2019-03-16T15:25:31.488Z,64.07
2019-03-16T15:28:55.328Z,63.44
2019-03-16T15:32:18.702Z,62.61
2019-03-16T15:35:42.151Z,62.71
2019-03-16T15:39:06.935Z,62.58
2019-03-16T15:42:30.371Z,62.15
2019-03-16T15:45:56.477Z,61.58
2019-03-16T15:49:18.788Z,61.08
2019-03-16T15:52:42.066Z,61.53
2019-03-16T15:56:05.335Z,62.03
2019-03-16T15:59:28.513Z,61.62
2019-03-16T16:02:51.578Z,60.36
2019-03-16T16:06:14.895Z,60.59
2019-03-16T16:09:38.289Z,60.67
2019-03-16T16:13:01.538Z,60.71
2019-03-16T16:16:24.918Z,59.89
2019-03-16T16:19:48.095Z,60.13
2019-03-16T16:23:11.441Z,60.37
2019-03-16T16:26:34.543Z,59.73
2019-03-16T16:29:58.093Z,60.50
2019-03-16T16:33:21.200Z,61.11
2019-03-16T16:36:44.283Z,61.30
2019-03-16T16:40:08.906Z,61.58
2019-03-16T16:43:32.152Z,61.09
2019-03-16T16:46:55.238Z,61.84
2019-03-16T16:50:18.477Z,61.41
2019-03-16T16:53:41.748Z,61.79
2019-03-16T16:57:05.854Z,60.63
2019-03-16T17:00:30.329Z,60.67
2019-03-16T17:03:53.561Z,61.88
2019-03-16T17:07:16.683Z,61.23
2019-03-16T17:10:40.082Z,62.36
2019-03-16T17:14:03.339Z,62.49
2019-03-16T17:17:35.162Z,62.00
2019-03-16T17:20:51.496Z,62.19
2019-03-16T17:24:15.712Z,61.63
2019-03-16T17:27:39.185Z,61.46
2019-03-16T17:31:06.530Z,60.53
2019-03-16T17:34:29.634Z,61.48
2019-03-16T17:37:52.850Z,60.72
2019-03-16T17:41:15.968Z,60.17
2019-03-16T17:44:39.594Z,60.60
2019-03-16T17:48:02.752Z,60.64
2019-03-16T17:51:38.944Z,60.75
2019-03-16T17:55:02.251Z,61.04
2019-03-16T17:58:25.458Z,60.92
2019-03-16T18:01:54.690Z,61.00
2019-03-16T18:05:13.732Z,61.37
2019-03-16T18:08:37.002Z,60.41
2019-03-16T18:12:00.129Z,61.63
2019-03-16T18:15:24.380Z,61.60
2019-03-16T18:18:47.548Z,61.57
2019-03-16T18:22:10.811Z,62.06
2019-03-16T18:25:34.237Z,61.28
2019-03-16T18:28:57.427Z,61.82
2019-03-16T18:32:20.561Z,61.55
2019-03-16T18:35:43.664Z,61.52
2019-03-16T18:39:06.802Z,62.60
2019-03-16T18:42:30.009Z,62.13
2019-03-16T18:45:53.342Z,62.28
2019-03-16T18:49:16.799Z,61.77
2019-03-16T18:52:40.135Z,62.84
2019-03-16T18:56:03.730Z,63.13
2019-03-16T18:59:28.010Z,62.79
2019-03-16T19:02:51.400Z,62.87
2019-03-16T19:06:14.747Z,62.49
2019-03-16T19:09:37.894Z,62.35
2019-03-16T19:13:01.038Z,62.46
2019-03-16T19:16:24.542Z,62.32
2019-03-16T19:19:47.782Z,63.42
2019-03-16T19:23:11.150Z,63.46
2019-03-16T19:26:34.677Z,62.04
2019-03-16T19:30:00.440Z,61.58
2019-03-16T19:33:23.660Z,61.73
2019-03-16T19:36:47.004Z,61.59
2019-03-16T19:40:10.669Z,62.52
2019-03-16T19:43:33.812Z,61.47
2019-03-16T19:46:57.114Z,62.12
2019-03-16T19:50:20.289Z,62.71
2019-03-16T19:53:43.380Z,62.37
2019-03-16T19:57:15.891Z,61.68
2019-03-16T20:00:31.567Z,62.27
2019-03-16T20:03:54.658Z,62.38
2019-03-16T20:07:19.651Z,62.59
2019-03-16T20:10:43.919Z,63.05
2019-03-16T20:14:07.746Z,64.26
2019-03-16T20:17:31.944Z,64.41
2019-03-16T20:20:57.258Z,62.99
2019-03-16T20:24:20.517Z,63.17
2019-03-16T20:27:48.776Z,62.85
2019-03-16T20:31:13.889Z,63.35
2019-03-16T20:34:37.030Z,63.68
2019-03-16T20:38:00.577Z,64.18
2019-03-16T20:41:35.542Z,63.67
2019-03-16T20:44:49.337Z,63.75
2019-03-16T20:48:13.221Z,64.18
2019-03-16T20:51:36.386Z,63.57
2019-03-16T20:54:59.918Z,63.57
2019-03-16T20:58:23.067Z,64.00
2019-03-16T21:01:47.441Z,63.31
2019-03-16T21:05:10.970Z,64.69
2019-03-16T21:08:34.378Z,64.38
2019-03-16T21:11:59.520Z,63.42
2019-03-16T21:15:23.749Z,64.54
2019-03-16T21:18:49.476Z,65.45
2019-03-16T21:22:15.192Z,63.87
2019-03-16T21:25:38.524Z,64.09
2019-03-16T21:29:01.752Z,64.43
2019-03-16T21:32:24.988Z,64.52
2019-03-16T21:35:48.162Z,64.92
2019-03-16T21:39:16.834Z,63.37
2019-03-16T21:42:41.421Z,63.84
2019-03-16T21:46:08.710Z,64.62
2019-03-16T21:49:33.733Z,64.12
2019-03-16T21:52:57.022Z,65.03
2019-03-16T21:56:21.127Z,64.47
2019-03-16T21:59:44.473Z,65.57
2019-03-16T22:03:08.117Z,65.05
2019-03-16T22:06:31.458Z,65.06
2019-03-16T22:09:54.773Z,64.91
2019-03-16T22:13:17.953Z,64.29
2019-03-16T22:16:41.496Z,64.49
2019-03-16T22:20:06.938Z,64.15
2019-03-16T22:23:31.316Z,64.12
2019-03-16T22:26:54.636Z,64.48
2019-03-16T22:30:18.491Z,64.64
2019-03-16T22:33:49.944Z,65.23
2019-03-16T22:37:07.213Z,64.58
2019-03-16T22:40:30.762Z,65.06
2019-03-16T22:43:53.912Z,64.59
2019-03-16T22:47:17.152Z,65.36
2019-03-16T22:50:40.423Z,64.81
2019-03-16T22:54:03.810Z,65.23
2019-03-16T22:57:27.273Z,64.43
2019-03-16T23:00:52.336Z,64.12
2019-03-16T23:04:15.655Z,65.08
2019-03-16T23:07:38.901Z,64.53
2019-03-16T23:11:02.047Z,63.37
2019-03-16T23:14:25.222Z,63.04
2019-03-16T23:17:48.634Z,63.75
2019-03-16T23:21:11.863Z,63.75
2019-03-16T23:24:35.255Z,63.66
2019-03-16T23:27:58.490Z,63.10
2019-03-16T23:31:24.533Z,62.88
2019-03-16T23:34:47.752Z,63.51
2019-03-16T23:38:11.049Z,62.99
2019-03-16T23:41:34.691Z,63.37
2019-03-16T23:44:58.482Z,63.36
2019-03-16T23:48:21.630Z,62.55
2019-03-16T23:51:44.760Z,62.97
2019-03-16T23:55:08.097Z,62.62
2019-03-16T23:58:31.175Z,63.46
